Nearby METAR Reports

 

KAVP - Avoca/Wilkes B., Pennsylvania, USA
Distance from station: NE 13mi, 20km
Updated: Sun, 24-May-2020 2:54pm PDT
Clear
Clear
 Wind from S
Wind: S 7 mph , 11 km/h
Temperature: 75°F , 24°C
Dew Point: 48°F , 9°C
Humidity: 39%
Barometer: 30.15 inHg , 1021 hPa
Clouds: Clear
Visibility: 10 miles , 16 km
2020/05/24 21:54 KAVP 242154Z 17006KT 10SM CLR 24/09 A3015 RMK AO2 SLP205 T02440094
KMPO - Mt. Pocono, Pennsylvania, USA
Distance from station: ESE 28mi, 45km
Updated: Sun, 24-May-2020 2:53pm PDT
Clear
Clear
 Wind from SSE
Wind: SSE 13 mph , 20 km/h, Gust: 18 mph , 30 km/h
Temperature: 64°F , 18°C
Dew Point: 50°F , 10°C
Humidity: 60%
Barometer: 30.20 inHg , 1022.7 hPa
Clouds: Clear
Visibility: 10 miles , 16 km
2020/05/24 21:53 KMPO 242153Z AUTO 15011G16KT 10SM CLR 18/10 A3020 RMK AO2 SLP227 T01830100
 
KABE - Allentown, Pennsylvania, USA
Distance from station: SSE 46mi, 74km
Updated: Sun, 24-May-2020 2:51pm PDT
Few Clouds
Few Clouds
 Wind from ESE
Wind: ESE 9 mph , 15 km/h
Temperature: 70°F , 21°C
Dew Point: 54°F , 12°C
Humidity: 57%
Barometer: 30.19 inHg , 1022.4 hPa
Clouds: Few Clouds
Visibility: 10 miles , 16 km
Cloud details: Few Clouds 3600 ft
2020/05/24 21:51 KABE 242151Z 12008KT 10SM FEW036 21/12 A3019 RMK AO2 SLP222 T02060122
KXLL - Allentown Queen, Pennsylvania, USA
Distance from station: SSE 50mi, 81km
Updated: Sun, 24-May-2020 3:15pm PDT
Partly Cloudy
Partly Cloudy
 Wind from SE
Wind: SE 8 mph , 13 km/h
Temperature: 68°F , 20°C
Dew Point: 55°F , 13°C
Humidity: 64%
Barometer: 30.20 inHg , 1022.7 hPa
Clouds: Partly Cloudy
Visibility: 10 miles , 16 km
Cloud details: Partly Cloudy 3500 ft
2020/05/24 22:15 KXLL 242215Z AUTO 13007KT 10SM SCT035 20/13 A3020 RMK AO2
 
KIPT - Williamsport, Pennsylvania, USA
Distance from station: W 52mi, 84km
Updated: Sun, 24-May-2020 2:54pm PDT
Overcast
Overcast
 Wind from ESE
Wind: ESE 7 mph , 11 km/h
Temperature: 73°F , 23°C
Dew Point: 57°F , 14°C
Humidity: 57%
Barometer: 30.12 inHg , 1020 hPa
Clouds: Overcast
Visibility: 10 miles , 16 km
Cloud details: Mostly Cloudy 3900 ft
Overcast 4600 ft
2020/05/24 21:54 KIPT 242154Z 11006KT 10SM BKN039 OVC046 23/14 A3012 RMK AO2 SLP197 T02280139
KSEG - Selinsgrove, Pennsylvania, USA
Distance from station: WSW 57mi, 92km
Updated: Sun, 24-May-2020 2:53pm PDT
Overcast
Overcast
 Wind from S
Wind: S 7 mph , 11 km/h
Temperature: 72°F , 22°C
Dew Point: 57°F , 14°C
Humidity: 61%
Barometer: 30.15 inHg , 1021 hPa
Clouds: Overcast
Visibility: 9 miles , 14 km
Cloud details: Overcast 3900 ft
2020/05/24 21:53 KSEG 242153Z AUTO 19006KT 9SM OVC039 22/14 A3015 RMK AO2 SLP208 T02170139
 
KRDG - Reading, Pennsylvania, USA
Distance from station: S 59mi, 95km
Updated: Sun, 24-May-2020 2:54pm PDT
Mostly Cloudy
Mostly Cloudy
 Wind from ESE
Wind: ESE 9 mph , 15 km/h, Gust: 18 mph , 30 km/h
Temperature: 70°F , 21°C
Dew Point: 55°F , 13°C
Humidity: 60%
Barometer: 30.16 inHg , 1021.3 hPa
Clouds: Mostly Cloudy
Visibility: 10 miles , 16 km
Cloud details: Mostly Cloudy 4200 ft
2020/05/24 21:54 KRDG 242154Z AUTO 12008G16KT 10SM BKN042 21/13 A3016 RMK AO2 SLP219 T02110128
KUKT - Quakertown Arp, Pennsylvania, USA
Distance from station: SSE 61mi, 98km
Updated: Sun, 24-May-2020 3:35pm PDT
Mostly Cloudy
Mostly Cloudy
 Wind from SSE
Wind: SSE 7 mph , 11 km/h
Temperature: 66°F , 19°C
Dew Point: 55°F , 13°C
Humidity: 68%
Barometer: 30.20 inHg , 1022.7 hPa
Clouds: Mostly Cloudy
Visibility: 10 miles , 16 km
Cloud details: Mostly Cloudy 2900 ft
2020/05/24 22:35 KUKT 242235Z AUTO 15006KT 10SM BKN029 19/13 A3020 RMK A01
 
K12N - Andover, New Jersey, USA
Distance from station: ESE 63mi, 101km
Updated: Sun, 24-May-2020 2:54pm PDT

 Wind from calm
Wind: Calm
Temperature: 70°F , 21°C
Dew Point: 52°F , 11°C
Humidity: 53%
Barometer: 30.21 inHg , 1023 hPa
2020/05/24 21:54 K12N 242154Z AUTO 00000KT 21/11 A3021 RMK AO1 SLP226 T02060111
KMUI - Muir Aaf/Indiant, Pennsylvania, USA
Distance from station: SSW 65mi, 105km
Updated: Sun, 24-May-2020 2:56pm PDT
Overcast
Overcast
 Wind from S
Wind: S 8 mph , 13 km/h
Temperature: 70°F , 21°C
Dew Point: 57°F , 14°C
Humidity: 64%
Barometer: 30.17 inHg , 1021.7 hPa
Clouds: Overcast
Visibility: 9 miles , 14 km
Cloud details: Mostly Cloudy 3300 ft
Overcast 4200 ft
2020/05/24 21:56 KMUI 242156Z AUTO 18007KT 9SM BKN033 OVC042 21/14 A3017 RMK AO2 SLP218 T02140143 $
 
KFWN - Sussex, New Jersey, USA
Distance from station: E 66mi, 107km
Updated: Sun, 24-May-2020 2:53pm PDT
Clear
Clear
 Wind from varies
Wind: varies 7 mph , 11 km/h
Temperature: 70°F , 21°C
Dew Point: 50°F , 10°C
Humidity: 50%
Barometer: 30.21 inHg , 1023 hPa
Clouds: Clear
Visibility: 10 miles , 16 km
2020/05/24 21:53 KFWN 242153Z AUTO VRB06KT 10SM CLR 21/10 A3021 RMK AO2 SLP230 T02060100
KMSV - Monticello, New York, USA
Distance from station: ENE 67mi, 108km
Updated: Sun, 24-May-2020 2:56pm PDT
Clear
Clear
 Wind from SSE
Wind: SSE 12 mph , 19 km/h
Temperature: 70°F , 21°C
Dew Point: 48°F , 9°C
Humidity: 46%
Barometer: 30.20 inHg , 1022.7 hPa
Clouds: Clear
Visibility: 10 miles , 16 km
2020/05/24 21:56 KMSV 242156Z AUTO 16010KT 10SM CLR 21/09 A3020 RMK AO2 SLP228 T02110089
 
KBGM - Binghamton, New York, USA
Distance from station: N 69mi, 111km
Updated: Sun, 24-May-2020 2:53pm PDT
Clear
Clear
 Wind from SSW
Wind: SSW 9 mph , 15 km/h
Temperature: 73°F , 23°C
Dew Point: 52°F , 11°C
Humidity: 47%
Barometer: 30.13 inHg , 1020.3 hPa
Clouds: Clear
Visibility: 10 miles , 16 km
2020/05/24 21:53 KBGM 242153Z AUTO 20008KT 10SM CLR 23/11 A3013 RMK AO2 SLP199 T02330106 $
KPTW - Pottstown, Pennsylvania, USA
Distance from station: SSE 71mi, 114km
Updated: Sun, 24-May-2020 2:54pm PDT
Overcast
Overcast
 Wind from varies
Wind: varies 5 mph , 7 km/h
Temperature: 66°F , 19°C
Dew Point: 55°F , 13°C
Humidity: 68%
Barometer: 30.21 inHg , 1023 hPa
Clouds: Overcast
Visibility: 9 miles , 14 km
Cloud details: Mostly Cloudy 3300 ft
Overcast 4100 ft
2020/05/24 21:54 KPTW 242154Z AUTO VRB04KT 9SM BKN033 OVC041 19/13 A3021 RMK AO2 SLP225 T01890128
 
KDYL - Doylestown, Pennsylvania, USA
Distance from station: SE 74mi, 119km
Updated: Sun, 24-May-2020 2:54pm PDT
Overcast
Overcast
 Wind from varies
Wind: varies 5 mph , 7 km/h
Temperature: 66°F , 19°C
Dew Point: 54°F , 12°C
Humidity: 64%
Barometer: 30.20 inHg , 1022.7 hPa
Clouds: Overcast
Visibility: 10 miles , 16 km
Cloud details: Overcast 2900 ft
2020/05/24 21:54 KDYL 242154Z AUTO VRB04KT 10SM OVC029 19/12 A3020 RMK AO2 SLP225 T01940122
KSMQ - Somerville, New Jersey, USA
Distance from station: ESE 77mi, 124km
Updated: Sun, 24-May-2020 2:53pm PDT
Few Clouds
Few Clouds
 Wind from SSE
Wind: SSE 10 mph , 17 km/h
Temperature: 68°F , 20°C
Dew Point: 54°F , 12°C
Humidity: 60%
Barometer: 30.20 inHg , 1022.7 hPa
Clouds: Few Clouds
Visibility: 10 miles , 16 km
Cloud details: Few Clouds 3500 ft
2020/05/24 21:53 KSMQ 242153Z AUTO 16009KT 10SM FEW035 20/12 A3020 RMK AO2 SLP225 T02000122
 
KLNS - Lancaster, Pennsylvania, USA
Distance from station: SSW 79mi, 127km
Updated: Sun, 24-May-2020 2:53pm PDT
Overcast
Overcast
 Wind from SE
Wind: SE 12 mph , 19 km/h
Temperature: 70°F , 21°C
Dew Point: 55°F , 13°C
Humidity: 60%
Barometer: 30.17 inHg , 1021.7 hPa
Clouds: Overcast
Visibility: 10 miles , 16 km
Cloud details: Overcast 4400 ft
2020/05/24 21:53 KLNS 242153Z 14010KT 10SM OVC044 21/13 A3017 RMK AO2 SLP216 T02060128
KELM - Elmira, New York, USA
Distance from station: NW 82mi, 132km
Updated: Sun, 24-May-2020 2:53pm PDT
Overcast
Overcast
 Wind from SSE
Wind: SSE 16 mph , 26 km/h
Temperature: 75°F , 24°C
Dew Point: 57°F , 14°C
Humidity: 54%
Barometer: 30.09 inHg , 1019 hPa
Clouds: Overcast
Visibility: 10 miles , 16 km
Cloud details: Overcast 4900 ft
2020/05/24 21:53 KELM 242153Z AUTO 16014KT 10SM OVC049 24/14 A3009 RMK AO2 SLP185 T02440144
 
KLOM - Philly Wings F, Pennsylvania, USA
Distance from station: SSE 82mi, 132km
Updated: Sun, 24-May-2020 3:15pm PDT
Mostly Cloudy
Mostly Cloudy
 Wind from E
Wind: E 12 mph , 19 km/h
Temperature: 66°F , 19°C
Dew Point: 55°F , 13°C
Humidity: 68%
Barometer: 30.20 inHg , 1022.7 hPa
Clouds: Mostly Cloudy
Visibility: 10 miles , 16 km
Cloud details: Mostly Cloudy 2800 ft
2020/05/24 22:15 KLOM 242215Z AUTO 09010KT 10SM BKN028 19/13 A3020 RMK AO2 T01950133
KMMU - Morristown Muni, New Jersey, USA
Distance from station: ESE 83mi, 134km
Updated: Sun, 24-May-2020 11:45am PDT
NOT Current
Mostly Cloudy
Mostly Cloudy
 Wind from ESE
Wind: ESE 7 mph , 11 km/h, Gust: 15 mph , 24 km/h
Temperature: 66°F , 19°C
Dew Point: 55°F , 13°C
Humidity: 68%
Barometer: 30.25 inHg , 1024.4 hPa
Clouds: Mostly Cloudy
Visibility: 10 miles , 16 km
Cloud details: Mostly Cloudy 2800 ft
2020/05/24 18:45 KMMU 241845Z 11006G13KT 10SM BKN028 19/13 A3025

Metar display script from Saratoga-Weather.org